Time;durP1;ratioP1;P1;durP2;ratioP2;P2;SDS_P1;SDS_P2;PMS_P1;PMS_P2;Temp;Humidity;BMP_temperature;BMP_pressure;BME280_temperature;BME280_humidity;BME280_pressure;Samples;Min_cycle;Max_cycle;Signal;HPM_P1;HPM_P2
2023/08/17 00:00:18;;;;;;;9.65;6.42;;;;;;;20.69;100.00;100680.48;1476671;87;21489;-88
2023/08/17 00:02:45;;;;;;;10.40;7.30;;;;;;;20.64;100.00;100673.55;1476526;88;21931;-85
2023/08/17 00:05:11;;;;;;;11.10;7.53;;;;;;;20.62;100.00;100668.06;1477360;87;22314;-87
2023/08/17 00:07:38;;;;;;;8.88;6.95;;;;;;;20.60;100.00;100666.09;1478052;87;21529;-85
2023/08/17 00:10:05;;;;;;;9.23;7.17;;;;;;;20.55;100.00;100664.56;1481387;88;21828;-88
2023/08/17 00:12:31;;;;;;;10.03;6.83;;;;;;;20.48;100.00;100666.71;1478835;88;22432;-88
2023/08/17 00:14:57;;;;;;;9.13;6.92;;;;;;;20.46;100.00;100662.57;1478394;87;22467;-86
2023/08/17 00:17:24;;;;;;;10.65;6.87;;;;;;;20.47;100.00;100666.91;1480313;88;21403;-91
2023/08/17 00:19:50;;;;;;;12.30;7.17;;;;;;;20.48;100.00;100668.55;1476526;88;21338;-90
2023/08/17 00:22:16;;;;;;;9.73;7.25;;;;;;;20.48;100.00;100672.58;1482118;87;22335;-88
2023/08/17 00:24:44;;;;;;;8.08;6.75;;;;;;;20.48;100.00;100669.89;1477124;87;21329;-90
2023/08/17 00:27:11;;;;;;;9.33;6.95;;;;;;;20.46;100.00;100673.33;1460374;88;22461;-91
2023/08/17 00:29:37;;;;;;;13.15;7.75;;;;;;;20.43;100.00;100676.42;1478126;87;21345;-89
2023/08/17 00:32:04;;;;;;;10.58;7.58;;;;;;;20.42;100.00;100666.69;1458770;88;21485;-92
2023/08/17 00:34:31;;;;;;;11.12;8.10;;;;;;;20.38;100.00;100669.49;1482340;87;21382;-90
2023/08/17 00:36:57;;;;;;;11.60;7.97;;;;;;;20.32;100.00;100665.77;1483267;87;21316;-90
2023/08/17 00:39:24;;;;;;;9.18;8.15;;;;;;;20.23;100.00;100666.48;1483025;88;21508;-90
2023/08/17 00:41:50;;;;;;;12.25;6.67;;;;;;;20.17;100.00;100665.96;1480543;88;21404;-90
2023/08/17 00:44:16;;;;;;;14.93;8.68;;;;;;;20.13;100.00;100665.22;1463274;88;21507;-86
2023/08/17 00:46:43;;;;;;;15.75;7.60;;;;;;;20.09;100.00;100659.95;1450812;88;22217;-86
2023/08/17 00:49:10;;;;;;;11.88;7.40;;;;;;;20.05;100.00;100660.37;1462072;88;21454;-88
2023/08/17 00:51:39;;;;;;;16.25;9.50;;;;;;;20.08;100.00;100658.28;1483153;88;22254;-88
2023/08/17 00:54:05;;;;;;;13.35;8.05;;;;;;;20.09;100.00;100647.87;1480505;88;21536;-90
2023/08/17 00:56:31;;;;;;;18.95;8.85;;;;;;;20.09;100.00;100648.69;1480560;87;22225;-88
2023/08/17 00:58:58;;;;;;;23.00;8.88;;;;;;;20.08;100.00;100660.45;1482319;88;21330;-90
2023/08/17 01:01:24;;;;;;;8.30;7.30;;;;;;;20.08;100.00;100660.97;1460801;88;21514;-91
2023/08/17 01:03:51;;;;;;;12.53;8.80;;;;;;;20.08;100.00;100664.48;1463091;88;22379;-88
2023/08/17 01:06:19;;;;;;;14.43;8.28;;;;;;;20.07;100.00;100650.74;1481668;87;21359;-87
2023/08/17 01:08:46;;;;;;;12.10;7.47;;;;;;;20.07;100.00;100660.15;1460775;88;21374;-90
2023/08/17 01:11:52;;;;;;;9.43;7.55;;;;;;;20.07;100.00;100661.49;1478368;87;21533;-89
2023/08/17 01:14:30;;;;;;;11.22;8.00;;;;;;;20.08;100.00;100665.82;1486773;88;21514;-87
2023/08/17 01:17:04;;;;;;;11.73;8.33;;;;;;;20.06;100.00;100665.22;1457266;88;22297;-90
2023/08/17 01:19:30;;;;;;;11.80;7.87;;;;;;;20.05;100.00;100668.92;1475848;88;21540;-87
2023/08/17 01:22:10;;;;;;;9.33;7.78;;;;;;;20.02;100.00;100661.27;1479490;87;22511;-88
2023/08/17 01:24:36;;;;;;;14.47;9.93;;;;;;;20.00;100.00;100659.32;1484761;87;21256;-89
2023/08/17 01:27:03;;;;;;;11.25;7.47;;;;;;;19.99;100.00;100656.30;1459746;88;22453;-87
2023/08/17 01:29:29;;;;;;;12.53;7.92;;;;;;;19.98;100.00;100648.77;1478507;88;21427;-90
2023/08/17 01:32:19;;;;;;;10.28;8.03;;;;;;;19.96;100.00;100647.31;1462115;88;21610;-86
2023/08/17 01:34:52;;;;;;;10.88;8.50;;;;;;;19.94;100.00;100652.91;1476004;88;21903;-90
2023/08/17 01:37:22;;;;;;;9.35;7.42;;;;;;;19.91;100.00;100640.37;1480585;88;21403;-88
2023/08/17 01:39:52;;;;;;;9.07;8.03;;;;;;;19.87;100.00;100633.77;1483116;88;21434;-90
2023/08/17 01:42:19;;;;;;;9.15;7.83;;;;;;;19.82;100.00;100632.53;1482886;88;21432;-88
2023/08/17 01:44:46;;;;;;;13.15;7.65;;;;;;;19.80;100.00;100625.19;1478178;88;22395;-91
2023/08/17 01:47:12;;;;;;;9.83;7.78;;;;;;;19.80;100.00;100623.02;1462150;88;21395;-88
2023/08/17 01:49:39;;;;;;;12.30;9.05;;;;;;;19.76;100.00;100621.75;1464476;88;21614;-89
2023/08/17 01:52:05;;;;;;;12.58;7.78;;;;;;;19.72;100.00;100617.83;1478140;88;21367;-89
2023/08/17 01:54:32;;;;;;;8.53;7.62;;;;;;;19.68;100.00;100616.08;1464204;88;22276;-89
2023/08/17 01:56:58;;;;;;;11.57;7.83;;;;;;;19.67;100.00;100618.43;1482114;88;22320;-87
2023/08/17 01:59:24;;;;;;;11.25;8.58;;;;;;;19.65;100.00;100620.97;1480170;88;21610;-90
2023/08/17 02:01:50;;;;;;;12.03;8.65;;;;;;;19.61;100.00;100621.89;1478122;88;21374;-89
2023/08/17 02:04:17;;;;;;;14.35;8.75;;;;;;;19.56;100.00;100619.83;1478979;87;21530;-89
2023/08/17 02:06:45;;;;;;;11.95;8.75;;;;;;;19.53;100.00;100621.55;1480492;88;22335;-91
2023/08/17 02:09:11;;;;;;;10.40;8.18;;;;;;;19.50;100.00;100625.16;1483709;88;21514;-89
2023/08/17 02:11:37;;;;;;;13.28;8.95;;;;;;;19.47;100.00;100624.22;1479252;87;21412;-89
2023/08/17 02:14:04;;;;;;;11.12;9.05;;;;;;;19.46;100.00;100622.58;1479219;87;21329;-92
2023/08/17 02:16:30;;;;;;;10.75;8.40;;;;;;;19.42;100.00;100622.65;1484175;88;21323;-86
2023/08/17 02:18:56;;;;;;;16.42;9.23;;;;;;;19.36;100.00;100621.11;1479914;88;21580;-88
2023/08/17 02:21:22;;;;;;;12.90;8.20;;;;;;;19.33;100.00;100618.83;1464529;88;21374;-87
2023/08/17 02:23:49;;;;;;;14.33;8.50;;;;;;;19.30;100.00;100608.98;1457949;88;21425;-88
2023/08/17 02:26:15;;;;;;;13.43;8.75;;;;;;;19.29;100.00;100605.48;1484329;88;21861;-87
2023/08/17 02:28:41;;;;;;;13.65;9.10;;;;;;;19.30;100.00;100608.98;1479725;88;21359;-86
2023/08/17 02:31:07;;;;;;;8.05;7.08;;;;;;;19.29;100.00;100605.48;1464220;88;22409;-88
2023/08/17 02:33:34;;;;;;;22.95;8.83;;;;;;;19.28;100.00;100605.70;1478179;88;21368;-86
2023/08/17 02:36:01;;;;;;;14.35;9.43;;;;;;;19.30;100.00;100609.80;1463499;88;21589;-87
2023/08/17 02:38:27;;;;;;;21.70;9.88;;;;;;;19.34;100.00;100608.39;1481936;87;21352;-89
2023/08/17 02:40:54;;;;;;;11.38;9.93;;;;;;;19.32;100.00;100614.47;1463087;88;22499;-91
2023/08/17 02:43:20;;;;;;;13.50;10.00;;;;;;;19.30;100.00;100609.80;1481911;87;21485;-90
2023/08/17 02:45:46;;;;;;;15.55;9.15;;;;;;;19.30;100.00;100609.80;1483101;88;21503;-88
2023/08/17 02:48:12;;;;;;;14.10;8.90;;;;;;;19.30;100.00;100605.78;1479987;88;21404;-89
2023/08/17 02:50:39;;;;;;;14.15;9.50;;;;;;;19.25;100.00;100598.87;1465928;88;22852;-90
2023/08/17 02:53:05;;;;;;;12.47;9.25;;;;;;;19.20;100.00;100597.30;1475699;88;21441;-87
2023/08/17 02:55:32;;;;;;;13.22;8.83;;;;;;;19.20;100.00;100597.30;1462606;88;21433;-89
2023/08/17 02:57:58;;;;;;;11.25;7.45;;;;;;;19.19;100.00;100594.30;1463387;88;22270;-88
2023/08/17 03:00:24;;;;;;;15.65;8.20;;;;;;;19.17;100.00;100586.96;1426387;88;21737;-88
2023/08/17 03:02:50;;;;;;;15.10;8.40;;;;;;;19.12;100.00;100588.89;1482267;88;21433;-89
2023/08/17 03:05:16;;;;;;;13.03;8.55;;;;;;;19.08;100.00;100586.83;1480448;87;21478;-86
2023/08/17 03:07:43;;;;;;;11.22;9.10;;;;;;;19.05;100.00;100589.91;1483332;88;21367;-89
2023/08/17 03:10:09;;;;;;;10.48;9.38;;;;;;;19.06;100.00;100588.88;1482345;88;21479;-89
2023/08/17 03:12:37;;;;;;;10.35;8.33;;;;;;;19.06;100.00;100596.40;1482434;88;21512;-89
2023/08/17 03:15:06;;;;;;;16.55;8.90;;;;;;;19.08;100.00;100599.72;1482027;88;21397;-89
2023/08/17 03:17:32;;;;;;;9.60;7.87;;;;;;;19.11;100.00;100599.84;1459561;88;22210;-87
2023/08/17 03:19:59;;;;;;;12.68;8.35;;;;;;;19.14;100.00;100599.44;1482892;88;21367;-86
2023/08/17 03:22:26;;;;;;;13.85;9.00;;;;;;;19.17;100.00;100601.72;1465480;88;21484;-89
2023/08/17 03:24:57;;;;;;;10.65;9.43;;;;;;;19.19;100.00;100595.65;1484723;88;22446;-91
2023/08/17 03:27:24;;;;;;;14.00;10.80;;;;;;;19.22;100.00;100593.05;1480579;88;21307;-87
2023/08/17 03:29:51;;;;;;;13.90;10.32;;;;;;;19.23;100.00;100592.05;1454039;89;22332;-88
2023/08/17 03:32:17;;;;;;;13.08;9.98;;;;;;;19.25;100.00;100598.87;1444637;90;21332;-88
2023/08/17 03:34:44;;;;;;;18.62;11.20;;;;;;;19.26;100.00;100587.62;1444366;90;21377;-87
2023/08/17 03:37:10;;;;;;;14.33;10.70;;;;;;;19.24;100.00;100583.77;1447809;90;21370;-88
2023/08/17 03:39:36;;;;;;;17.57;13.35;;;;;;;19.28;100.00;100582.88;1433660;90;21539;-89
2023/08/17 03:42:03;;;;;;;15.05;9.90;;;;;;;19.30;100.00;100582.97;1436737;90;21621;-87
2023/08/17 03:44:29;;;;;;;16.42;12.05;;;;;;;19.32;100.00;100582.27;1451599;90;22412;-87
2023/08/17 03:46:55;;;;;;;16.85;12.30;;;;;;;19.35;100.00;100585.88;1448282;89;22758;-91
2023/08/17 03:49:22;;;;;;;18.30;12.43;;;;;;;19.36;100.00;100587.56;1449075;90;21436;-89
2023/08/17 03:51:48;;;;;;;14.00;11.48;;;;;;;19.39;100.00;100581.79;1446941;90;21333;-89
2023/08/17 03:54:14;;;;;;;15.98;12.50;;;;;;;19.44;100.00;100589.73;1447606;90;21524;-87
2023/08/17 03:56:41;;;;;;;22.80;13.15;;;;;;;19.47;100.00;100587.98;1433925;90;21444;-89
2023/08/17 03:59:07;;;;;;;15.65;11.90;;;;;;;19.49;100.00;100588.63;1407297;90;21525;-88
2023/08/17 04:01:33;;;;;;;21.30;12.88;;;;;;;19.49;100.00;100581.91;1451795;90;21362;-89
2023/08/17 04:03:59;;;;;;;18.42;12.65;;;;;;;19.51;100.00;100583.89;1450152;90;21674;-89
2023/08/17 04:06:26;;;;;;;18.95;13.35;;;;;;;19.55;100.00;100590.49;1447603;90;21555;-89
2023/08/17 04:08:52;;;;;;;17.17;12.95;;;;;;;19.61;100.00;100593.70;1448463;90;21422;-86
2023/08/17 04:11:18;;;;;;;24.82;12.58;;;;;;;19.65;100.00;100593.66;1446294;90;22339;-88
2023/08/17 04:13:45;;;;;;;20.32;12.78;;;;;;;19.71;100.00;100594.19;1449822;90;21570;-88
2023/08/17 04:16:11;;;;;;;16.17;12.05;;;;;;;19.75;100.00;100592.73;1451205;90;21422;-87
2023/08/17 04:18:37;;;;;;;20.32;13.30;;;;;;;19.82;100.00;100593.59;1449832;90;21600;-88
2023/08/17 04:21:04;;;;;;;20.85;14.38;;;;;;;19.89;100.00;100594.11;1444525;89;22240;-88
2023/08/17 04:23:30;;;;;;;15.48;11.63;;;;;;;19.93;100.00;100592.14;1451768;90;21384;-91
2023/08/17 04:25:57;;;;;;;30.85;13.78;;;;;;;19.95;100.00;100586.58;1452561;90;21481;-91
2023/08/17 04:28:23;;;;;;;17.40;12.03;;;;;;;19.92;100.00;100576.24;1443552;90;21332;-90
2023/08/17 04:30:49;;;;;;;19.12;12.33;;;;;;;19.91;100.00;100581.28;1432018;90;21578;-90
2023/08/17 04:33:15;;;;;;;15.30;11.08;;;;;;;19.93;100.00;100584.08;1450610;89;21429;-91
2023/08/17 04:35:41;;;;;;;19.57;12.47;;;;;;;19.96;100.00;100586.88;1437980;90;21531;-92
2023/08/17 04:38:08;;;;;;;19.98;12.78;;;;;;;20.01;100.00;100583.88;1481169;90;21355;-89
2023/08/17 04:40:34;;;;;;;18.95;12.40;;;;;;;20.02;100.00;100584.70;1438300;90;21354;-90
2023/08/17 04:43:01;;;;;;;15.98;12.65;;;;;;;20.11;100.00;100595.58;1448349;90;21559;-88
2023/08/17 04:45:27;;;;;;;20.60;12.28;;;;;;;20.17;100.00;100594.76;1448720;90;21497;-89
2023/08/17 04:47:53;;;;;;;18.40;13.22;;;;;;;20.17;100.00;100594.76;1431607;90;21443;-90
2023/08/17 04:50:19;;;;;;;19.17;13.08;;;;;;;20.26;100.00;100597.54;1447972;90;21465;-88
2023/08/17 04:52:46;;;;;;;22.50;12.55;;;;;;;20.26;100.00;100597.54;1438122;90;22415;-85
2023/08/17 04:55:14;;;;;;;16.07;11.53;;;;;;;20.33;100.00;100602.08;1444822;90;21362;-85
2023/08/17 04:57:40;;;;;;;15.50;11.30;;;;;;;20.39;100.00;100599.91;1447177;90;22379;-88
2023/08/17 05:00:09;;;;;;;16.32;12.13;;;;;;;20.43;100.00;100595.27;1446674;90;21391;-89
2023/08/17 05:02:37;;;;;;;20.20;14.03;;;;;;;20.43;100.00;100595.27;1447727;90;21399;-89
2023/08/17 05:05:06;;;;;;;20.62;11.85;;;;;;;20.45;100.00;100595.86;1474936;87;22365;-91
2023/08/17 05:07:32;;;;;;;16.60;11.73;;;;;;;20.48;100.00;100589.24;1454279;89;22306;-89
2023/08/17 05:10:00;;;;;;;16.55;11.80;;;;;;;20.56;100.00;100590.41;1446023;90;21377;-89
2023/08/17 05:12:26;;;;;;;19.23;11.57;;;;;;;20.56;100.00;100590.41;1444800;90;21531;-86
2023/08/17 05:14:52;;;;;;;26.15;11.95;;;;;;;20.58;100.00;100594.24;1449599;90;22368;-89
2023/08/17 05:17:19;;;;;;;15.93;10.20;;;;;;;20.60;100.00;100597.03;1451607;90;21318;-88
2023/08/17 05:19:45;;;;;;;22.13;11.00;;;;;;;20.67;100.00;100605.90;1431465;90;21543;-92
2023/08/17 05:22:13;;;;;;;15.68;11.88;;;;;;;20.73;100.00;100607.75;1434923;90;21458;-88
2023/08/17 05:24:39;;;;;;;17.32;10.60;;;;;;;20.77;100.00;100615.39;1415405;90;21502;-90
2023/08/17 05:27:06;;;;;;;15.10;11.00;;;;;;;20.86;100.00;100620.85;1446738;90;21361;-90
2023/08/17 05:29:32;;;;;;;14.30;11.15;;;;;;;20.93;100.00;100618.46;1447242;90;21369;-89
2023/08/17 05:31:58;;;;;;;14.98;9.93;;;;;;;21.00;100.00;100612.23;1446977;90;21399;-91
2023/08/17 05:34:25;;;;;;;18.02;9.58;;;;;;;21.02;100.00;100610.98;1449091;90;22877;-89
2023/08/17 05:36:51;;;;;;;19.87;10.65;;;;;;;21.07;100.00;100609.84;1432116;90;22260;-86
2023/08/17 05:39:17;;;;;;;17.65;10.38;;;;;;;21.07;100.00;100604.45;1431805;90;21533;-85
2023/08/17 05:41:44;;;;;;;20.00;9.78;;;;;;;21.12;100.00;100601.97;1435828;90;21384;-87
2023/08/17 05:44:10;;;;;;;19.30;10.35;;;;;;;21.14;100.00;100603.08;1446468;90;21369;-88
2023/08/17 05:46:36;;;;;;;17.82;9.80;;;;;;;21.22;100.00;100592.61;1429010;90;21340;-89
2023/08/17 05:49:04;;;;;;;14.78;11.48;;;;;;;21.26;100.00;100601.40;1447541;90;22227;-87
2023/08/17 05:51:30;;;;;;;19.05;10.15;;;;;;;21.32;100.00;100606.41;1449589;90;21473;-88
2023/08/17 05:53:56;;;;;;;16.50;9.73;;;;;;;21.36;100.00;100614.39;1432726;90;22105;-91
2023/08/17 05:56:22;;;;;;;18.67;10.10;;;;;;;21.42;100.00;100610.87;1449803;90;21465;-91
2023/08/17 05:58:48;;;;;;;17.07;10.55;;;;;;;;;;1451989;90;21408;-92
2023/08/17 06:01:15;;;;;;;13.55;10.05;;;;;;;21.55;100.00;100620.23;1448958;89;22308;-88
2023/08/17 06:03:41;;;;;;;17.57;10.38;;;;;;;21.63;100.00;100628.56;1443121;90;21606;-87
2023/08/17 06:06:07;;;;;;;18.25;9.78;;;;;;;21.72;100.00;100626.45;1450244;90;21399;-85
2023/08/17 06:08:33;;;;;;;14.95;8.93;;;;;;;21.78;100.00;100624.23;1451376;90;21503;-86
2023/08/17 06:11:00;;;;;;;13.85;10.70;;;;;;;21.82;100.00;100620.08;1445970;90;21377;-85
2023/08/17 06:13:26;;;;;;;26.05;10.23;;;;;;;21.90;100.00;100626.56;1447696;90;21514;-83
2023/08/17 06:15:53;;;;;;;16.20;9.60;;;;;;;22.00;100.00;100622.03;1443658;90;21532;-84
2023/08/17 06:18:20;;;;;;;14.35;9.28;;;;;;;22.07;100.00;100624.98;1448346;90;21347;-86
2023/08/17 06:20:47;;;;;;;14.03;9.58;;;;;;;22.18;100.00;100626.19;1448025;90;21584;-86
2023/08/17 06:23:14;;;;;;;18.35;9.93;;;;;;;22.29;100.00;100621.41;1424257;90;21465;-85
2023/08/17 06:25:40;;;;;;;13.38;8.63;;;;;;;22.41;100.00;100616.65;1443605;90;22250;-86
2023/08/17 06:28:07;;;;;;;13.13;8.63;;;;;;;22.46;100.00;100621.69;1433095;90;22212;-85
2023/08/17 06:30:33;;;;;;;13.22;8.43;;;;;;;22.56;100.00;100625.74;1433299;90;21347;-85
2023/08/17 06:32:59;;;;;;;15.60;8.40;;;;;;;22.65;100.00;100619.04;1448814;90;21862;-85
2023/08/17 06:35:26;;;;;;;12.10;8.70;;;;;;;22.75;100.00;100616.64;1433615;90;21561;-87
2023/08/17 06:37:55;;;;;;;14.75;8.28;;;;;;;22.88;100.00;100621.91;1443402;90;21436;-86
2023/08/17 06:40:20;;;;;;;14.70;9.85;;;;;;;22.95;100.00;100614.58;1448115;90;21554;-85
2023/08/17 06:42:47;;;;;;;17.25;10.58;;;;;;;23.04;100.00;100623.73;1447093;90;21561;-84
2023/08/17 06:45:18;;;;;;;16.17;8.68;;;;;;;23.16;100.00;100629.52;1446117;90;21518;-85
2023/08/17 06:47:41;;;;;;;14.68;7.97;;;;;;;23.32;100.00;100636.70;1435181;90;21465;-86
2023/08/17 06:50:08;;;;;;;14.60;7.90;;;;;;;23.35;100.00;100637.06;1433008;90;21588;-87
2023/08/17 06:52:34;;;;;;;9.53;8.03;;;;;;;23.42;100.00;100631.07;1449662;90;21804;-85
2023/08/17 06:55:01;;;;;;;15.72;8.85;;;;;;;23.54;100.00;100632.47;1449312;90;21569;-87
2023/08/17 06:57:28;;;;;;;13.58;9.40;;;;;;;23.61;100.00;100646.70;1445736;89;21385;-86
2023/08/17 06:59:55;;;;;;;16.87;9.65;;;;;;;23.62;100.00;100642.11;1450113;90;21970;-84
2023/08/17 07:02:21;;;;;;;15.38;8.50;;;;;;;23.59;100.00;100642.58;1432833;90;22441;-86
2023/08/17 07:04:47;;;;;;;13.50;8.68;;;;;;;23.58;100.00;100631.48;1448697;89;21406;-85
2023/08/17 07:07:14;;;;;;;18.27;9.35;;;;;;;23.64;100.00;100638.67;1432968;90;21332;-86
2023/08/17 07:09:40;;;;;;;14.13;8.90;;;;;;;23.78;100.00;100645.57;1433153;90;21406;-86
2023/08/17 07:12:07;;;;;;;15.65;9.60;;;;;;;23.96;100.00;100649.27;1446911;90;21517;-82
2023/08/17 07:14:33;;;;;;;21.68;9.13;;;;;;;24.13;100.00;100652.95;1448586;90;21355;-84
2023/08/17 07:17:00;;;;;;;19.10;9.25;;;;;;;24.35;100.00;100663.25;1447648;90;21528;-85
2023/08/17 07:19:26;;;;;;;13.28;8.78;;;;;;;24.58;100.00;100657.06;1442487;90;21392;-86
2023/08/17 07:21:53;;;;;;;16.77;8.95;;;;;;;24.67;100.00;100658.36;1447116;90;22614;-85
2023/08/17 07:24:19;;;;;;;17.87;11.10;;;;;;;24.72;100.00;100648.47;1438251;90;21452;-82
2023/08/17 07:26:46;;;;;;;11.05;9.55;;;;;;;24.80;100.00;100651.37;1451667;90;21510;-85
2023/08/17 07:29:12;;;;;;;14.95;9.83;;;;;;;24.74;100.00;100659.05;1449815;90;21429;-85
2023/08/17 07:31:39;;;;;;;15.00;8.23;;;;;;;24.72;100.00;100672.83;1445798;90;21361;-86
2023/08/17 07:34:06;;;;;;;23.60;10.43;;;;;;;24.74;100.00;100677.99;1455541;89;21398;-87
2023/08/17 07:36:33;;;;;;;14.73;10.35;;;;;;;24.76;100.00;100678.59;1449016;90;21421;-86
2023/08/17 07:39:00;;;;;;;21.02;9.48;;;;;;;24.72;100.00;100675.53;1429358;90;22534;-86
2023/08/17 07:41:30;;;;;;;15.25;9.88;;;;;;;24.70;100.00;100676.30;1449783;90;21377;-85
2023/08/17 07:43:56;;;;;;;17.80;10.30;;;;;;;24.69;100.00;100671.13;1446889;90;21436;-86
2023/08/17 07:46:23;;;;;;;14.23;9.68;;;;;;;24.69;100.00;100667.89;1432258;90;21480;-85
2023/08/17 07:48:49;;;;;;;17.70;9.85;;;;;;;24.67;100.00;100663.23;1451061;90;21362;-85
2023/08/17 07:51:15;;;;;;;15.72;9.48;;;;;;;24.66;100.00;100669.72;1426829;90;21635;-85
2023/08/17 07:53:42;;;;;;;14.75;9.53;;;;;;;24.59;100.00;100664.94;1452340;90;21363;-85
2023/08/17 07:56:08;;;;;;;15.48;9.33;;;;;;;24.56;100.00;100668.64;1444554;90;22243;-85
2023/08/17 07:58:35;;;;;;;29.23;11.08;;;;;;;24.49;100.00;100668.77;1448609;90;21363;-84
2023/08/17 08:01:01;;;;;;;14.00;9.83;;;;;;;24.40;100.00;100672.81;1454167;90;21569;-85
2023/08/17 08:03:27;;;;;;;14.73;10.45;;;;;;;24.38;100.00;100676.30;1448982;90;21311;-85
2023/08/17 08:05:56;;;;;;;19.80;10.58;;;;;;;24.39;100.00;100677.94;1450233;90;21435;-86
2023/08/17 08:08:22;;;;;;;17.82;11.08;;;;;;;24.40;100.00;100684.48;1435152;90;22351;-84
2023/08/17 08:10:52;;;;;;;17.30;11.45;;;;;;;24.41;100.00;100685.30;1435922;90;21495;-84
2023/08/17 08:13:19;;;;;;;21.50;10.53;;;;;;;24.44;100.00;100691.63;1449583;89;22272;-85
2023/08/17 08:15:46;;;;;;;16.25;11.03;;;;;;;24.45;100.00;100700.03;1449350;90;21491;-84
2023/08/17 08:18:12;;;;;;;17.95;11.70;;;;;;;24.42;100.00;100691.81;1449743;90;21333;-84
2023/08/17 08:20:38;;;;;;;17.73;10.82;;;;;;;24.39;100.00;100695.52;1450824;90;22441;-85
2023/08/17 08:23:05;;;;;;;16.25;10.78;;;;;;;24.35;100.00;100683.53;1432073;90;22315;-86
2023/08/17 08:25:31;;;;;;;16.42;9.85;;;;;;;24.30;100.00;100670.69;1447074;90;22308;-86
2023/08/17 08:27:57;;;;;;;17.92;10.13;;;;;;;24.18;100.00;100649.04;1415607;90;22468;-86
2023/08/17 08:30:23;;;;;;;18.62;10.80;;;;;;;24.13;100.00;100640.79;1433846;90;21392;-86
2023/08/17 08:32:50;;;;;;;25.52;10.95;;;;;;;24.18;100.00;100657.68;1449286;90;21517;-86
2023/08/17 08:35:17;;;;;;;15.00;9.75;;;;;;;24.24;100.00;100661.63;1453883;90;21459;-86
2023/08/17 08:37:43;;;;;;;17.23;9.60;;;;;;;24.31;100.00;100652.89;1437887;90;21378;-86
2023/08/17 08:40:15;;;;;;;14.00;8.50;;;;;;;24.34;100.00;100644.84;1448827;90;21407;-85
2023/08/17 08:42:41;;;;;;;12.05;7.80;;;;;;;24.47;100.00;100658.70;1442941;90;22140;-85
2023/08/17 08:48:21;;;;;;;16.87;9.18;;;;;;;24.66;100.00;100650.77;1444710;90;21553;-86
2023/08/17 08:50:50;;;;;;;20.57;9.58;;;;;;;24.70;100.00;100647.06;1437635;90;21362;-86
2023/08/17 08:53:20;;;;;;;14.58;9.38;;;;;;;24.69;100.00;100635.95;1450767;90;21414;-85
2023/08/17 08:55:51;;;;;;;13.15;9.15;;;;;;;24.62;100.00;100638.76;1448920;90;21377;-86
2023/08/17 08:58:18;;;;;;;15.72;10.40;;;;;;;24.48;100.00;100630.58;1447691;90;21692;-86
2023/08/17 09:00:49;;;;;;;16.57;10.40;;;;;;;24.40;100.00;100621.42;1430219;90;21572;-85
2023/08/17 09:03:18;;;;;;;17.02;9.15;;;;;;;24.26;100.00;100641.94;1450626;90;21525;-86
2023/08/17 09:05:48;;;;;;;16.40;10.00;;;;;;;24.33;100.00;100672.39;1433627;90;21546;-86
2023/08/17 09:08:18;;;;;;;17.42;11.25;;;;;;;24.40;100.00;100668.25;1443974;90;21296;-85
2023/08/17 09:10:44;;;;;;;14.47;9.78;;;;;;;24.47;100.00;100658.70;1453877;90;21393;-86
2023/08/17 09:13:10;;;;;;;18.25;10.43;;;;;;;24.54;100.00;100656.19;1447890;90;21531;-84
2023/08/17 09:15:37;;;;;;;16.40;9.53;;;;;;;24.64;100.00;100669.12;1440777;90;22270;-86
2023/08/17 09:18:58;;;;;;;14.07;9.50;;;;;;;24.74;100.00;100673.94;1447960;90;21443;-85
2023/08/17 09:25:26;;;;;;;12.18;9.65;;;;;;;24.94;100.00;100654.63;1414987;90;21369;-86
2023/08/17 09:27:53;;;;;;;18.60;9.90;;;;;;;24.89;100.00;100637.76;1447255;90;21400;-86
2023/08/17 09:30:19;;;;;;;17.23;10.68;;;;;;;24.90;100.00;100629.92;1449055;90;21495;-86
2023/08/17 09:32:52;;;;;;;25.17;10.38;;;;;;;24.90;100.00;100627.75;1437825;90;22949;-85
2023/08/17 09:35:18;;;;;;;14.30;10.05;;;;;;;24.86;100.00;100621.14;1454716;90;21525;-86
2023/08/17 09:37:44;;;;;;;22.98;10.48;;;;;;;24.94;100.00;100608.60;1434564;90;21400;-86
2023/08/17 09:40:11;;;;;;;16.17;10.38;;;;;;;25.11;100.00;100608.16;1446577;89;21621;-87
2023/08/17 09:42:39;;;;;;;20.52;10.63;;;;;;;25.31;100.00;100613.73;1449214;90;21657;-89
2023/08/17 09:45:07;;;;;;;13.18;9.95;;;;;;;25.45;100.00;100616.45;1449952;90;21369;-87
2023/08/17 09:47:35;;;;;;;16.75;10.20;;;;;;;25.55;100.00;100628.00;1454053;90;21399;-87
2023/08/17 09:50:03;;;;;;;23.38;11.08;;;;;;;25.69;100.00;100641.55;1433873;90;21399;-87
2023/08/17 09:52:29;;;;;;;15.85;10.13;;;;;;;25.96;100.00;100651.85;1450290;90;21560;-88
2023/08/17 09:54:56;;;;;;;32.80;12.60;;;;;;;26.24;100.00;100655.02;1435800;90;21599;-85
2023/08/17 09:57:23;;;;;;;16.77;10.23;;;;;;;26.53;100.00;100651.75;1446227;90;21437;-86
2023/08/17 09:59:51;;;;;;;12.33;10.20;;;;;;;26.76;100.00;100644.76;1453346;90;21599;-86
2023/08/17 10:02:20;;;;;;;13.25;8.73;;;;;;;26.96;100.00;100640.69;1449125;90;21355;-86
2023/08/17 10:04:55;;;;;;;14.85;8.78;;;;;;;26.97;100.00;100634.99;1428556;90;21436;-85
2023/08/17 10:07:27;;;;;;;17.35;9.55;;;;;;;27.14;100.00;100628.70;1452435;90;21466;-85
2023/08/17 10:10:02;;;;;;;14.28;8.73;;;;;;;27.30;100.00;100627.81;1450607;90;21392;-86
2023/08/17 10:12:30;;;;;;;17.25;9.53;;;;;;;27.43;100.00;100632.88;1445558;89;21377;-88
2023/08/17 10:15:01;;;;;;;17.62;8.53;;;;;;;27.51;100.00;100630.80;1445498;90;21568;-88
2023/08/17 10:17:33;;;;;;;14.07;8.55;;;;;;;27.52;100.00;100626.98;1451771;90;23025;-88
2023/08/17 10:20:00;;;;;;;9.18;7.22;;;;;;;27.60;100.00;100624.63;1430705;91;21448;-85
2023/08/17 10:22:55;;;;;;;10.60;7.15;;;;;;;27.65;100.00;100626.59;1450373;90;21391;-88
2023/08/17 10:25:23;;;;;;;16.82;7.35;;;;;;;27.66;100.00;100614.09;1456247;89;21361;-88
2023/08/17 10:27:51;;;;;;;15.75;7.40;;;;;;;27.54;100.00;100612.61;1435459;91;21457;-86
2023/08/17 10:30:18;;;;;;;10.40;7.75;;;;;;;27.44;100.00;100612.77;1457501;90;21598;-86
2023/08/17 10:32:46;;;;;;;18.75;7.65;;;;;;;27.32;100.00;100610.73;1454729;90;21355;-88
2023/08/17 10:35:14;;;;;;;15.88;7.80;;;;;;;27.13;100.00;100612.09;1460377;90;21572;-87
2023/08/17 11:20:23;;;;;;;8.15;6.05;;;;;;;30.14;98.56;100585.95;1561577;83;29406;-86
2023/08/17 11:22:50;;;;;;;9.18;5.92;;;;;;;30.11;96.87;100585.95;1513833;84;21505;-87
2023/08/17 11:25:17;;;;;;;6.15;5.03;;;;;;;30.23;99.56;100590.34;1534382;84;21409;-85
2023/08/17 11:27:44;;;;;;;12.68;5.33;;;;;;;30.39;97.26;100586.50;1536167;84;22630;-85
2023/08/17 11:30:12;;;;;;;11.53;5.42;;;;;;;30.38;94.52;100582.11;1515080;84;22296;-85
2023/08/17 11:32:39;;;;;;;13.90;5.30;;;;;;;30.40;95.32;100586.77;1519980;85;22326;-87
2023/08/17 11:35:05;;;;;;;9.18;5.42;;;;;;;30.33;89.29;100582.14;1502146;86;21372;-88
2023/08/17 11:37:32;;;;;;;8.95;5.37;;;;;;;30.44;94.19;100575.58;1518242;85;22363;-89
2023/08/17 11:39:59;;;;;;;8.98;5.42;;;;;;;30.40;93.90;100573.66;1521033;86;22430;-85
2023/08/17 11:42:25;;;;;;;7.53;5.47;;;;;;;30.25;89.64;100571.78;1475786;86;21492;-85
2023/08/17 11:44:52;;;;;;;9.83;5.83;;;;;;;30.17;94.25;100575.03;1487404;86;21568;-86
2023/08/17 11:47:18;;;;;;;8.38;6.00;;;;;;;30.29;96.91;100573.67;1537627;84;22297;-87
2023/08/17 11:49:49;;;;;;;10.40;5.72;;;;;;;30.56;97.89;100571.17;1514282;84;21689;-85
2023/08/17 11:52:16;;;;;;;10.95;5.80;;;;;;;30.82;98.17;100577.41;1543147;84;21351;-83
2023/08/17 11:54:42;;;;;;;19.20;5.92;;;;;;;30.67;96.10;100571.94;1532084;84;22415;-87
2023/08/17 11:57:08;;;;;;;8.58;5.55;;;;;;;30.71;97.40;100568.94;1524572;84;21361;-85
2023/08/17 11:59:35;;;;;;;9.83;6.08;;;;;;;30.55;94.55;100574.42;1509965;84;21498;-83